createdAt,value
2019-05-28T00:01:08.253Z,27.48
2019-05-28T00:03:40.969Z,30.27
2019-05-28T00:06:13.896Z,31.65
2019-05-28T00:08:46.793Z,31.73
2019-05-28T00:11:20.184Z,31.37
2019-05-28T00:13:52.864Z,31.65
2019-05-28T00:16:25.656Z,33.60
2019-05-28T00:18:58.364Z,32.42
2019-05-28T00:21:31.316Z,32.63
2019-05-28T00:24:03.880Z,34.08
2019-05-28T00:26:36.777Z,34.78
2019-05-28T00:29:09.557Z,34.38
2019-05-28T00:31:42.345Z,32.25
2019-05-28T00:34:15.119Z,31.97
2019-05-28T00:36:48.128Z,32.08
2019-05-28T00:39:20.693Z,31.52
2019-05-28T00:41:53.583Z,32.80
2019-05-28T00:44:26.353Z,32.42
2019-05-28T00:46:59.024Z,32.15
2019-05-28T00:49:31.712Z,29.37
2019-05-28T00:52:06.237Z,32.08
2019-05-28T00:54:39.169Z,31.65
2019-05-28T00:57:12.791Z,30.92
2019-05-28T00:59:47.974Z,32.23
2019-05-28T01:02:21.973Z,33.42
2019-05-28T01:04:54.775Z,32.90
2019-05-28T01:07:27.434Z,36.58
2019-05-28T01:10:00.221Z,36.90
2019-05-28T01:12:33.798Z,36.17
2019-05-28T01:15:08.746Z,35.80
2019-05-28T01:17:41.783Z,36.10
2019-05-28T01:20:15.128Z,35.83
2019-05-28T01:22:48.531Z,34.38
2019-05-28T01:25:20.985Z,33.53
2019-05-28T01:27:54.708Z,33.38
2019-05-28T01:30:27.591Z,32.78
2019-05-28T01:33:00.268Z,32.90
2019-05-28T01:35:33.173Z,32.88
2019-05-28T01:38:08.299Z,32.80
2019-05-28T01:40:40.067Z,32.40
2019-05-28T01:43:12.724Z,32.90
2019-05-28T01:45:45.407Z,31.23
2019-05-28T01:48:18.397Z,30.80
2019-05-28T01:50:51.184Z,31.23
2019-05-28T01:53:23.575Z,31.42
2019-05-28T01:55:56.949Z,32.05
2019-05-28T01:58:29.731Z,32.83
2019-05-28T02:01:12.691Z,32.40
2019-05-28T02:03:37.034Z,32.33
2019-05-28T02:06:10.143Z,31.55
2019-05-28T02:08:43.134Z,30.23
2019-05-28T02:11:15.784Z,31.68
2019-05-28T02:13:48.598Z,32.83
2019-05-28T02:16:21.238Z,31.52
2019-05-28T02:18:54.081Z,31.57
2019-05-28T02:21:27.012Z,33.70
2019-05-28T02:24:00.304Z,33.53
2019-05-28T02:26:32.784Z,32.90
2019-05-28T02:29:05.557Z,33.70
2019-05-28T02:31:38.567Z,32.48
2019-05-28T02:34:11.135Z,34.15
2019-05-28T02:36:43.705Z,32.83
2019-05-28T02:39:16.446Z,33.20
2019-05-28T02:41:49.349Z,32.73
2019-05-28T02:44:22.048Z,32.38
2019-05-28T02:46:54.830Z,33.18
2019-05-28T02:49:27.507Z,31.65
2019-05-28T02:52:00.183Z,32.15
2019-05-28T02:54:33.161Z,34.43
2019-05-28T02:57:05.837Z,34.13
2019-05-28T02:59:38.988Z,34.75
2019-05-28T03:02:14.795Z,35.35
2019-05-28T03:04:48.369Z,37.05
2019-05-28T03:07:22.077Z,36.42
2019-05-28T03:09:56.523Z,36.90
2019-05-28T03:12:32.392Z,37.73
2019-05-28T03:15:08.449Z,36.48
2019-05-28T03:17:43.267Z,34.58
2019-05-28T03:20:16.365Z,35.98
2019-05-28T03:22:50.451Z,35.73
2019-05-28T03:25:24.186Z,35.17
2019-05-28T03:27:57.527Z,35.28
2019-05-28T03:30:30.176Z,36.17
2019-05-28T03:33:03.012Z,35.43
2019-05-28T03:35:38.446Z,34.88
2019-05-28T03:38:13.012Z,36.77
2019-05-28T03:40:47.914Z,36.35
2019-05-28T03:43:20.402Z,36.75
2019-05-28T03:45:53.500Z,36.98
2019-05-28T03:48:26.664Z,35.65
2019-05-28T03:50:59.773Z,35.88
2019-05-28T03:53:32.458Z,34.67
2019-05-28T03:56:05.031Z,35.13
2019-05-28T03:58:37.618Z,35.75
2019-05-28T04:01:10.845Z,34.43
2019-05-28T04:03:43.489Z,33.40
2019-05-28T04:06:16.550Z,33.67
2019-05-28T04:08:49.149Z,34.43
2019-05-28T04:11:22.175Z,34.80
2019-05-28T04:13:55.634Z,32.65
2019-05-28T04:16:28.298Z,33.08
2019-05-28T04:19:00.773Z,30.95
2019-05-28T04:21:33.671Z,31.25
2019-05-28T04:24:06.466Z,29.37
2019-05-28T04:26:39.237Z,29.25
2019-05-28T04:29:12.153Z,28.73
2019-05-28T04:31:45.024Z,28.27
2019-05-28T04:34:17.892Z,27.50
2019-05-28T04:36:50.469Z,25.52
2019-05-28T04:39:23.952Z,26.70
2019-05-28T04:41:56.525Z,25.02
2019-05-28T04:44:29.527Z,25.75
2019-05-28T04:47:02.125Z,24.90
2019-05-28T04:49:34.891Z,23.62
2019-05-28T04:52:07.980Z,22.83
2019-05-28T04:54:40.876Z,23.60
2019-05-28T04:57:13.339Z,23.32
2019-05-28T04:59:46.128Z,22.22
2019-05-28T05:02:19.360Z,21.93
2019-05-28T05:04:52.099Z,21.95
2019-05-28T05:07:25.270Z,23.50
2019-05-28T05:09:57.985Z,23.65
2019-05-28T05:12:30.845Z,22.48
2019-05-28T05:15:05.755Z,22.52
2019-05-28T05:17:38.346Z,22.13
2019-05-28T05:20:11.019Z,24.80
2019-05-28T05:22:43.917Z,26.57
2019-05-28T05:25:17.774Z,28.15
2019-05-28T05:27:50.188Z,30.05
2019-05-28T05:30:22.769Z,27.87
2019-05-28T05:32:55.648Z,23.87
2019-05-28T05:35:28.144Z,22.20
2019-05-28T05:38:00.697Z,19.73
2019-05-28T05:40:34.111Z,16.85
2019-05-28T05:43:06.784Z,16.70
2019-05-28T05:45:39.355Z,14.83
2019-05-28T05:48:12.154Z,15.15
2019-05-28T05:50:45.443Z,14.47
2019-05-28T05:53:18.943Z,14.87
2019-05-28T05:55:51.735Z,15.00
2019-05-28T05:58:25.408Z,16.35
2019-05-28T06:00:58.210Z,14.95
2019-05-28T06:03:40.238Z,12.78
2019-05-28T06:06:05.330Z,11.75
2019-05-28T06:08:38.221Z,9.23
2019-05-28T06:11:10.998Z,8.93
2019-05-28T06:13:43.437Z,7.53
2019-05-28T06:16:17.047Z,7.58
2019-05-28T06:18:49.750Z,9.95
2019-05-28T06:21:22.618Z,12.13
2019-05-28T06:23:55.288Z,15.20
2019-05-28T06:26:27.875Z,13.38
2019-05-28T06:29:00.748Z,11.43
2019-05-28T06:31:33.442Z,10.05
2019-05-28T06:34:06.323Z,11.63
2019-05-28T06:36:38.801Z,11.10
2019-05-28T06:39:11.580Z,13.08
2019-05-28T06:41:43.954Z,11.73
2019-05-28T06:44:16.729Z,10.90
2019-05-28T06:46:49.415Z,10.35
2019-05-28T06:49:23.403Z,9.20
2019-05-28T06:51:56.205Z,8.30
2019-05-28T06:54:29.091Z,8.87
2019-05-28T06:57:01.837Z,9.43
2019-05-28T06:59:34.549Z,9.35
2019-05-28T07:02:07.226Z,9.00
2019-05-28T07:04:39.586Z,9.25
2019-05-28T07:07:12.490Z,9.00
2019-05-28T07:09:45.157Z,8.45
2019-05-28T07:12:18.354Z,7.45
2019-05-28T07:14:50.990Z,8.00
2019-05-28T07:17:23.703Z,8.15
2019-05-28T07:19:56.198Z,8.08
2019-05-28T07:22:28.759Z,7.35
2019-05-28T07:25:01.351Z,7.80
2019-05-28T07:27:34.132Z,7.40
2019-05-28T07:30:09.868Z,8.18
2019-05-28T07:32:42.456Z,6.97
2019-05-28T07:35:16.160Z,7.07
2019-05-28T07:37:48.534Z,5.33
2019-05-28T07:40:31.227Z,5.73
2019-05-28T07:42:56.666Z,5.40
2019-05-28T07:45:29.210Z,5.87
2019-05-28T07:48:01.918Z,4.90
2019-05-28T07:50:34.698Z,5.25
2019-05-28T07:53:07.407Z,4.27
2019-05-28T07:55:40.373Z,3.90
2019-05-28T07:58:13.145Z,3.92
2019-05-28T08:00:45.984Z,3.80
2019-05-28T08:03:18.389Z,3.33
2019-05-28T08:05:51.900Z,3.67
2019-05-28T08:08:25.486Z,3.63
2019-05-28T08:10:57.872Z,3.90
2019-05-28T08:13:40.175Z,3.52
2019-05-28T08:16:17.491Z,3.98
2019-05-28T08:18:38.983Z,3.75
2019-05-28T08:21:11.588Z,4.17
2019-05-28T08:23:44.237Z,4.37
2019-05-28T08:26:16.933Z,4.30
2019-05-28T08:28:49.698Z,4.17
2019-05-28T08:31:22.275Z,3.92
2019-05-28T08:33:54.749Z,5.22
2019-05-28T08:36:27.534Z,4.92
2019-05-28T08:39:01.032Z,4.60
2019-05-28T08:41:34.330Z,5.00
2019-05-28T08:44:06.804Z,5.08
2019-05-28T08:46:39.792Z,4.97
2019-05-28T08:49:12.360Z,4.53
2019-05-28T08:51:45.025Z,4.70
2019-05-28T08:54:17.920Z,5.00
2019-05-28T08:56:50.609Z,5.07
2019-05-28T08:59:22.207Z,5.12
2019-05-28T09:01:54.641Z,5.20
2019-05-28T09:04:27.196Z,5.53
2019-05-28T09:06:59.794Z,5.10
2019-05-28T09:09:32.574Z,4.78
2019-05-28T09:12:05.454Z,5.00
2019-05-28T09:14:54.980Z,4.50
2019-05-28T09:17:12.133Z,4.67
2019-05-28T09:19:44.760Z,4.93
2019-05-28T09:22:25.642Z,5.13
2019-05-28T09:24:51.501Z,5.10
2019-05-28T09:27:24.303Z,4.92
2019-05-28T09:29:56.878Z,5.53
2019-05-28T09:32:29.770Z,5.65
2019-05-28T09:35:03.039Z,5.33
2019-05-28T09:37:35.639Z,5.55
2019-05-28T09:40:09.450Z,5.22
2019-05-28T09:42:41.923Z,5.45
2019-05-28T09:45:22.509Z,5.37
2019-05-28T09:47:49.168Z,6.03
2019-05-28T09:50:30.440Z,6.30
2019-05-28T09:52:56.102Z,5.95
2019-05-28T09:55:28.799Z,6.10
2019-05-28T09:58:01.469Z,6.33
2019-05-28T10:00:37.827Z,6.40
2019-05-28T10:03:10.520Z,6.15
2019-05-28T10:05:58.270Z,6.58
2019-05-28T10:08:17.399Z,5.80
2019-05-28T10:10:50.331Z,6.30
2019-05-28T10:13:37.263Z,5.67
2019-05-28T10:15:57.000Z,5.92
2019-05-28T10:18:29.550Z,6.20
2019-05-28T10:21:17.131Z,5.65
2019-05-28T10:23:36.361Z,6.05
2019-05-28T10:26:08.731Z,6.25
2019-05-28T10:28:41.422Z,5.85
2019-05-28T10:31:14.096Z,6.03
2019-05-28T10:33:46.650Z,6.40
2019-05-28T10:36:34.308Z,6.10
2019-05-28T10:38:53.668Z,6.15
2019-05-28T10:41:26.242Z,6.47
2019-05-28T10:43:58.938Z,6.92
2019-05-28T10:46:31.789Z,7.03
2019-05-28T10:49:05.001Z,7.25
2019-05-28T10:51:37.452Z,6.85
2019-05-28T10:54:10.048Z,7.05
2019-05-28T10:56:42.609Z,7.40
2019-05-28T10:59:15.409Z,6.67
2019-05-28T11:01:48.085Z,6.67
2019-05-28T11:04:20.774Z,6.53
2019-05-28T11:06:53.572Z,6.40
2019-05-28T11:09:26.374Z,6.60
2019-05-28T11:11:58.913Z,6.53
2019-05-28T11:14:31.369Z,6.23
2019-05-28T11:17:04.066Z,6.22
2019-05-28T11:19:36.437Z,6.00
2019-05-28T11:22:09.018Z,6.15
2019-05-28T11:24:41.903Z,6.17
2019-05-28T11:27:14.576Z,5.83
2019-05-28T11:29:47.464Z,5.35
2019-05-28T11:32:20.227Z,6.10
2019-05-28T11:34:52.818Z,4.72
2019-05-28T11:37:25.708Z,4.80
2019-05-28T11:39:58.193Z,4.83
2019-05-28T11:42:31.278Z,5.05
2019-05-28T11:45:05.490Z,5.20
2019-05-28T11:47:38.146Z,4.95
2019-05-28T11:50:12.159Z,4.45
2019-05-28T11:52:44.679Z,4.42
2019-05-28T11:55:19.071Z,4.40
2019-05-28T11:57:51.961Z,4.10
2019-05-28T12:00:25.834Z,4.40
2019-05-28T12:02:58.442Z,4.28
2019-05-28T12:05:30.913Z,4.50
2019-05-28T12:08:04.871Z,4.80
2019-05-28T12:10:37.817Z,4.83
2019-05-28T12:13:12.132Z,5.03
2019-05-28T12:15:44.908Z,4.53
2019-05-28T12:18:17.501Z,4.97
2019-05-28T12:20:50.279Z,4.50
2019-05-28T12:23:23.058Z,4.42
2019-05-28T12:25:55.834Z,4.33
2019-05-28T12:28:37.424Z,5.03
2019-05-28T12:31:02.512Z,4.42
2019-05-28T12:33:35.003Z,5.25
2019-05-28T12:36:10.229Z,4.65
2019-05-28T12:38:42.698Z,4.85
2019-05-28T12:41:15.192Z,4.72
2019-05-28T12:43:47.958Z,4.67
2019-05-28T12:46:20.535Z,4.87
2019-05-28T12:48:53.334Z,4.60
2019-05-28T12:51:26.246Z,4.62
2019-05-28T12:53:58.781Z,4.70
2019-05-28T12:56:31.796Z,4.50
2019-05-28T12:59:04.463Z,4.62
2019-05-28T13:01:37.378Z,4.65
2019-05-28T13:04:10.270Z,4.95
2019-05-28T13:06:42.909Z,4.47
2019-05-28T13:09:15.588Z,4.92
2019-05-28T13:11:48.351Z,4.60
2019-05-28T13:14:21.161Z,4.70
2019-05-28T13:16:54.633Z,5.62
2019-05-28T13:19:27.312Z,5.15
2019-05-28T13:22:01.547Z,4.83
2019-05-28T13:24:34.434Z,4.83
2019-05-28T13:27:17.453Z,4.50
2019-05-28T13:29:41.122Z,4.40
2019-05-28T13:32:13.817Z,4.60
2019-05-28T13:34:48.238Z,4.70
2019-05-28T13:37:21.300Z,5.12
2019-05-28T13:39:54.201Z,4.75
2019-05-28T13:42:26.856Z,4.80
2019-05-28T13:44:59.754Z,4.40
2019-05-28T13:47:34.122Z,4.92
2019-05-28T13:50:11.746Z,4.62
2019-05-28T13:52:44.639Z,4.40
2019-05-28T13:55:17.444Z,4.70
2019-05-28T14:00:22.809Z,4.80
2019-05-28T14:02:55.396Z,5.28
2019-05-28T14:05:27.948Z,4.92
2019-05-28T14:08:00.939Z,5.22
2019-05-28T14:10:33.504Z,5.25
2019-05-28T14:13:06.392Z,5.20
2019-05-28T14:15:39.091Z,5.30
2019-05-28T14:18:12.179Z,5.28
2019-05-28T14:20:44.832Z,5.20
2019-05-28T14:23:20.403Z,5.42
2019-05-28T14:25:53.185Z,5.05
2019-05-28T14:28:25.964Z,5.50
2019-05-28T14:33:31.937Z,5.08
2019-05-28T14:36:06.155Z,4.50
2019-05-28T14:38:38.736Z,5.40
2019-05-28T14:41:11.750Z,4.75
2019-05-28T14:43:44.605Z,5.50
2019-05-28T14:46:17.903Z,5.62
2019-05-28T14:51:22.333Z,5.25
2019-05-28T14:53:55.019Z,5.75
2019-05-28T14:56:27.541Z,5.30
2019-05-28T14:59:00.068Z,5.75
2019-05-28T15:01:32.539Z,6.35
2019-05-28T15:06:36.676Z,5.90
2019-05-28T15:11:43.157Z,6.10
2019-05-28T15:14:15.940Z,6.03
2019-05-28T15:16:50.203Z,5.70
2019-05-28T15:19:23.126Z,5.78
2019-05-28T15:24:28.917Z,6.58
2019-05-28T15:27:01.680Z,43.38
2019-05-28T15:29:34.582Z,26.35
2019-05-28T15:34:39.204Z,6.47
2019-05-28T15:37:12.306Z,5.17
2019-05-28T15:39:44.780Z,6.00
2019-05-28T15:42:20.702Z,5.20
2019-05-28T15:44:51.928Z,5.60
2019-05-28T15:49:56.022Z,5.90
2019-05-28T15:52:28.794Z,6.15
2019-05-28T15:55:01.274Z,5.90
2019-05-28T15:57:34.347Z,6.12
2019-05-28T16:00:14.638Z,6.10
2019-05-28T16:02:47.278Z,5.65
2019-05-28T16:07:51.975Z,5.45
2019-05-28T16:10:24.722Z,4.97
2019-05-28T16:12:58.014Z,5.10
2019-05-28T16:15:31.131Z,5.37
2019-05-28T16:18:03.803Z,5.30
2019-05-28T16:20:36.399Z,8.70
2019-05-28T16:23:09.569Z,9.85
2019-05-28T16:25:42.437Z,9.15
2019-05-28T16:28:14.944Z,8.18
2019-05-28T16:30:47.367Z,6.90
2019-05-28T16:33:19.850Z,6.90
2019-05-28T16:35:52.444Z,6.10
2019-05-28T16:38:25.035Z,5.90
2019-05-28T16:40:57.799Z,5.78
2019-05-28T16:43:30.380Z,6.10
2019-05-28T16:46:02.955Z,6.47
2019-05-28T16:48:35.942Z,7.05
2019-05-28T16:51:08.626Z,6.90
2019-05-28T16:53:41.305Z,6.20
2019-05-28T16:56:13.782Z,6.12
2019-05-28T16:58:46.562Z,6.37
2019-05-28T17:01:22.756Z,6.90
2019-05-28T17:03:53.130Z,7.87
2019-05-28T17:06:26.013Z,8.40
2019-05-28T17:08:58.391Z,8.98
2019-05-28T17:11:31.500Z,8.78
2019-05-28T17:14:04.392Z,8.05
2019-05-28T17:16:37.554Z,8.30
2019-05-28T17:19:10.152Z,8.33
2019-05-28T17:21:42.931Z,8.00
2019-05-28T17:24:15.488Z,8.43
2019-05-28T17:26:48.096Z,8.68
2019-05-28T17:29:21.876Z,9.18
2019-05-28T17:31:54.655Z,8.63
2019-05-28T17:34:27.243Z,8.40
2019-05-28T17:37:00.323Z,7.72
2019-05-28T17:39:33.221Z,6.53
2019-05-28T17:42:05.701Z,5.67
2019-05-28T17:44:38.587Z,5.90
2019-05-28T17:47:11.611Z,6.42
2019-05-28T17:49:44.251Z,6.80
2019-05-28T17:52:18.466Z,8.63
2019-05-28T17:54:51.255Z,8.55
2019-05-28T17:57:23.929Z,7.25
2019-05-28T17:59:56.682Z,6.70
2019-05-28T18:02:29.621Z,6.47
2019-05-28T18:05:02.692Z,6.50
2019-05-28T18:07:35.363Z,6.60
2019-05-28T18:10:10.316Z,6.03
2019-05-28T18:12:42.771Z,5.70
2019-05-28T18:15:15.540Z,6.05
2019-05-28T18:17:48.315Z,6.28
2019-05-28T18:20:20.897Z,9.50
2019-05-28T18:22:53.509Z,13.13
2019-05-28T18:25:26.353Z,20.93
2019-05-28T18:27:59.462Z,17.30
2019-05-28T18:30:32.244Z,16.05
2019-05-28T18:33:05.135Z,23.27
2019-05-28T18:35:37.619Z,20.72
2019-05-28T18:38:10.285Z,18.25
2019-05-28T18:40:43.139Z,15.95
2019-05-28T18:43:15.952Z,12.63
2019-05-28T18:45:57.942Z,10.50
2019-05-28T18:48:30.613Z,9.85
2019-05-28T18:51:03.094Z,8.00
2019-05-28T18:53:35.867Z,8.20
2019-05-28T18:56:17.353Z,7.78
2019-05-28T18:58:42.981Z,7.40
2019-05-28T19:01:15.543Z,7.33
2019-05-28T19:03:50.421Z,7.40
2019-05-28T19:06:22.963Z,7.17
2019-05-28T19:08:55.731Z,7.28
2019-05-28T19:11:37.367Z,9.78
2019-05-28T19:14:02.626Z,9.73
2019-05-28T19:16:35.331Z,8.28
2019-05-28T19:19:08.005Z,8.03
2019-05-28T19:21:40.768Z,6.42
2019-05-28T19:24:13.570Z,6.78
2019-05-28T19:26:45.953Z,6.33
2019-05-28T19:29:18.725Z,6.78
2019-05-28T19:31:51.297Z,6.80
2019-05-28T19:34:23.960Z,6.92
2019-05-28T19:36:56.964Z,7.67
2019-05-28T19:39:30.653Z,7.17
2019-05-28T19:42:03.534Z,7.30
2019-05-28T19:44:36.543Z,7.72
2019-05-28T19:47:09.218Z,7.17
2019-05-28T19:49:42.699Z,7.15
2019-05-28T19:52:20.818Z,7.05
2019-05-28T19:54:54.615Z,6.80
2019-05-28T19:57:27.292Z,7.42
2019-05-28T20:00:00.007Z,7.87
2019-05-28T20:02:32.557Z,6.97
2019-05-28T20:05:06.961Z,7.50
2019-05-28T20:07:39.448Z,7.35
2019-05-28T20:10:12.861Z,7.28
2019-05-28T20:12:45.647Z,7.97
2019-05-28T20:15:19.956Z,7.62
2019-05-28T20:17:52.824Z,7.03
2019-05-28T20:20:25.848Z,8.35
2019-05-28T20:22:58.287Z,8.25
2019-05-28T20:25:31.606Z,8.00
2019-05-28T20:28:04.078Z,7.62
2019-05-28T20:30:36.837Z,7.92
2019-05-28T20:33:09.637Z,7.67
2019-05-28T20:35:42.112Z,8.28
2019-05-28T20:38:15.011Z,9.60
2019-05-28T20:40:47.886Z,9.13
2019-05-28T20:43:20.458Z,9.50
2019-05-28T20:45:53.241Z,8.30
2019-05-28T20:48:25.924Z,9.13
2019-05-28T20:51:07.791Z,7.60
2019-05-28T20:53:36.301Z,8.00
2019-05-28T20:56:08.099Z,8.13
2019-05-28T20:58:40.960Z,8.68
2019-05-28T21:01:13.622Z,8.78
2019-05-28T21:03:47.732Z,8.48
2019-05-28T21:06:20.312Z,9.03
2019-05-28T21:08:54.117Z,8.68
2019-05-28T21:11:26.573Z,7.42
2019-05-28T21:13:59.370Z,7.58
2019-05-28T21:16:32.290Z,8.68
2019-05-28T21:19:04.785Z,7.67
2019-05-28T21:21:37.413Z,8.25
2019-05-28T21:24:10.072Z,7.95
2019-05-28T21:26:42.755Z,8.25
2019-05-28T21:29:15.537Z,7.53
2019-05-28T21:31:50.398Z,8.58
2019-05-28T21:34:23.972Z,8.20
2019-05-28T21:36:57.078Z,8.70
2019-05-28T21:39:29.756Z,8.80
2019-05-28T21:42:03.321Z,9.25
2019-05-28T21:44:35.733Z,9.47
2019-05-28T21:47:08.518Z,9.23
2019-05-28T21:49:41.194Z,9.70
2019-05-28T21:52:14.925Z,9.00
2019-05-28T21:54:47.695Z,9.15
2019-05-28T21:57:20.366Z,9.05
2019-05-28T21:59:53.599Z,9.40
2019-05-28T22:02:28.760Z,9.13
2019-05-28T22:05:06.302Z,9.10
2019-05-28T22:07:35.794Z,8.95
2019-05-28T22:10:08.908Z,9.33
2019-05-28T22:12:42.997Z,9.55
2019-05-28T22:15:16.049Z,10.20
2019-05-28T22:17:56.110Z,9.63
2019-05-28T22:20:28.962Z,10.88
2019-05-28T22:23:02.655Z,9.95
2019-05-28T22:25:35.290Z,11.28
2019-05-28T22:28:07.756Z,11.53
2019-05-28T22:30:40.436Z,11.80
2019-05-28T22:33:13.140Z,11.35
2019-05-28T22:35:45.799Z,10.23
2019-05-28T22:38:18.496Z,10.13
2019-05-28T22:40:51.174Z,9.95
2019-05-28T22:43:31.516Z,9.98
2019-05-28T22:45:59.090Z,10.88
2019-05-28T22:48:31.772Z,10.18
2019-05-28T22:51:05.593Z,10.78
2019-05-28T22:53:40.297Z,10.68
2019-05-28T22:56:12.670Z,10.93
2019-05-28T22:58:45.568Z,11.60
2019-05-28T23:01:18.447Z,12.33
2019-05-28T23:03:51.024Z,12.95
2019-05-28T23:06:23.607Z,13.25
2019-05-28T23:08:56.387Z,13.50
2019-05-28T23:11:29.173Z,12.70
2019-05-28T23:14:02.097Z,12.82
2019-05-28T23:16:34.733Z,12.70
2019-05-28T23:19:07.195Z,13.28
2019-05-28T23:21:39.889Z,12.70
2019-05-28T23:24:12.662Z,13.68
2019-05-28T23:26:45.353Z,13.30
2019-05-28T23:29:17.907Z,13.70
2019-05-28T23:31:50.809Z,13.60
2019-05-28T23:34:23.531Z,13.20
2019-05-28T23:36:56.068Z,13.00
2019-05-28T23:39:28.741Z,12.03
2019-05-28T23:42:01.435Z,12.70
2019-05-28T23:44:34.306Z,11.45
2019-05-28T23:47:07.818Z,11.80
2019-05-28T23:49:40.692Z,11.30
2019-05-28T23:52:13.360Z,11.33
2019-05-28T23:54:46.533Z,10.85
2019-05-28T23:57:19.039Z,11.93
2019-05-28T23:59:51.524Z,12.07
